sensor_id;sensor_type;location;lat;lon;timestamp;pressure;altitude;pressure_sealevel;temperature;humidity
81518;BME280;70947;50.806;8.774;2023-07-02T00:00:46;98789.10;;;17.22;72.60
81518;BME280;70947;50.806;8.774;2023-07-02T00:03:40;98786.00;;;17.18;72.62
81518;BME280;70947;50.806;8.774;2023-07-02T00:06:12;98787.54;;;17.16;72.58
81518;BME280;70947;50.806;8.774;2023-07-02T00:08:43;98786.55;;;17.11;72.57
81518;BME280;70947;50.806;8.774;2023-07-02T00:11:17;98781.69;;;17.07;72.70
81518;BME280;70947;50.806;8.774;2023-07-02T00:13:49;98782.83;;;17.03;72.67
81518;BME280;70947;50.806;8.774;2023-07-02T00:16:21;98780.56;;;17.02;72.67
81518;BME280;70947;50.806;8.774;2023-07-02T00:18:53;98785.00;;;17.00;72.84
81518;BME280;70947;50.806;8.774;2023-07-02T00:21:24;98783.39;;;17.00;72.78
81518;BME280;70947;50.806;8.774;2023-07-02T00:23:59;98781.06;;;17.00;72.94
81518;BME280;70947;50.806;8.774;2023-07-02T00:26:31;98780.88;;;16.95;73.44
81518;BME280;70947;50.806;8.774;2023-07-02T00:29:02;98786.90;;;16.92;73.11
81518;BME280;70947;50.806;8.774;2023-07-02T00:31:36;98787.92;;;16.93;73.21
81518;BME280;70947;50.806;8.774;2023-07-02T00:34:10;98791.81;;;16.93;72.94
81518;BME280;70947;50.806;8.774;2023-07-02T00:36:42;98792.45;;;16.92;72.88
81518;BME280;70947;50.806;8.774;2023-07-02T00:39:14;98793.86;;;16.92;73.31
81518;BME280;70947;50.806;8.774;2023-07-02T00:41:46;98801.34;;;16.89;73.83
81518;BME280;70947;50.806;8.774;2023-07-02T00:44:18;98804.33;;;16.90;73.49
81518;BME280;70947;50.806;8.774;2023-07-02T00:46:54;98800.14;;;16.91;73.69
81518;BME280;70947;50.806;8.774;2023-07-02T00:49:26;98803.07;;;16.90;74.11
81518;BME280;70947;50.806;8.774;2023-07-02T00:51:58;98798.90;;;16.89;74.38
81518;BME280;70947;50.806;8.774;2023-07-02T00:54:30;98801.73;;;16.89;74.18
81518;BME280;70947;50.806;8.774;2023-07-02T00:57:03;98797.70;;;16.88;74.37
81518;BME280;70947;50.806;8.774;2023-07-02T00:59:36;98793.80;;;16.88;73.99
81518;BME280;70947;50.806;8.774;2023-07-02T01:02:09;98792.34;;;16.88;73.72
81518;BME280;70947;50.806;8.774;2023-07-02T01:04:41;98790.84;;;16.89;73.97
81518;BME280;70947;50.806;8.774;2023-07-02T01:07:13;98782.93;;;16.88;73.78
81518;BME280;70947;50.806;8.774;2023-07-02T01:09:44;98782.49;;;16.86;73.83
81518;BME280;70947;50.806;8.774;2023-07-02T01:12:17;98782.86;;;16.83;74.10
81518;BME280;70947;50.806;8.774;2023-07-02T01:14:53;98789.70;;;16.82;73.93
81518;BME280;70947;50.806;8.774;2023-07-02T01:17:27;98791.22;;;16.80;73.81
81518;BME280;70947;50.806;8.774;2023-07-02T01:20:12;98790.44;;;16.79;74.20
81518;BME280;70947;50.806;8.774;2023-07-02T01:22:44;98792.44;;;16.78;74.03
81518;BME280;70947;50.806;8.774;2023-07-02T01:25:17;98791.82;;;16.79;73.77
81518;BME280;70947;50.806;8.774;2023-07-02T01:27:49;98790.15;;;16.80;73.56
81518;BME280;70947;50.806;8.774;2023-07-02T01:30:21;98791.27;;;16.80;73.47
81518;BME280;70947;50.806;8.774;2023-07-02T01:32:53;98796.14;;;16.81;73.67
81518;BME280;70947;50.806;8.774;2023-07-02T01:35:25;98793.55;;;16.80;73.16
81518;BME280;70947;50.806;8.774;2023-07-02T01:37:56;98795.75;;;16.79;73.32
81518;BME280;70947;50.806;8.774;2023-07-02T01:40:28;98796.45;;;16.76;73.08
81518;BME280;70947;50.806;8.774;2023-07-02T01:42:59;98800.20;;;16.73;72.89
81518;BME280;70947;50.806;8.774;2023-07-02T01:45:31;98803.08;;;16.70;72.66
81518;BME280;70947;50.806;8.774;2023-07-02T01:48:03;98808.08;;;16.66;72.71
81518;BME280;70947;50.806;8.774;2023-07-02T01:50:35;98809.56;;;16.62;72.84
81518;BME280;70947;50.806;8.774;2023-07-02T01:53:07;98811.31;;;16.62;72.69
81518;BME280;70947;50.806;8.774;2023-07-02T01:55:38;98810.23;;;16.63;72.18
81518;BME280;70947;50.806;8.774;2023-07-02T01:58:10;98814.48;;;16.60;72.15
81518;BME280;70947;50.806;8.774;2023-07-02T02:00:42;98812.23;;;16.59;72.23
81518;BME280;70947;50.806;8.774;2023-07-02T02:03:14;98809.63;;;16.58;72.16
81518;BME280;70947;50.806;8.774;2023-07-02T02:05:46;98816.61;;;16.57;72.36
81518;BME280;70947;50.806;8.774;2023-07-02T02:08:18;98819.44;;;16.55;72.23
81518;BME280;70947;50.806;8.774;2023-07-02T02:10:50;98817.84;;;16.52;72.16
81518;BME280;70947;50.806;8.774;2023-07-02T02:13:21;98821.34;;;16.50;72.36
81518;BME280;70947;50.806;8.774;2023-07-02T02:15:53;98824.77;;;16.47;72.60
81518;BME280;70947;50.806;8.774;2023-07-02T02:18:25;98825.05;;;16.45;72.64
81518;BME280;70947;50.806;8.774;2023-07-02T02:20:57;98827.79;;;16.44;72.80
81518;BME280;70947;50.806;8.774;2023-07-02T02:23:29;98829.76;;;16.44;73.00
81518;BME280;70947;50.806;8.774;2023-07-02T02:26:01;98827.65;;;16.43;72.98
81518;BME280;70947;50.806;8.774;2023-07-02T02:28:33;98826.44;;;16.43;73.06
81518;BME280;70947;50.806;8.774;2023-07-02T02:31:04;98828.98;;;16.42;73.04
81518;BME280;70947;50.806;8.774;2023-07-02T02:33:36;98825.69;;;16.40;72.90
81518;BME280;70947;50.806;8.774;2023-07-02T02:36:09;98828.27;;;16.39;72.95
81518;BME280;70947;50.806;8.774;2023-07-02T02:38:41;98823.24;;;16.33;73.11
81518;BME280;70947;50.806;8.774;2023-07-02T02:41:12;98825.08;;;16.29;72.95
81518;BME280;70947;50.806;8.774;2023-07-02T02:43:44;98829.43;;;16.25;73.16
81518;BME280;70947;50.806;8.774;2023-07-02T02:46:20;98830.36;;;16.25;73.18
81518;BME280;70947;50.806;8.774;2023-07-02T02:48:52;98828.98;;;16.24;73.24
81518;BME280;70947;50.806;8.774;2023-07-02T02:51:24;98832.23;;;16.23;73.25
81518;BME280;70947;50.806;8.774;2023-07-02T02:53:56;98829.08;;;16.23;73.49
81518;BME280;70947;50.806;8.774;2023-07-02T02:56:27;98826.18;;;16.20;73.29
81518;BME280;70947;50.806;8.774;2023-07-02T02:58:59;98827.86;;;16.19;73.26
81518;BME280;70947;50.806;8.774;2023-07-02T03:01:30;98832.86;;;16.16;73.28
81518;BME280;70947;50.806;8.774;2023-07-02T03:04:03;98831.90;;;16.14;73.45
81518;BME280;70947;50.806;8.774;2023-07-02T03:06:36;98834.31;;;16.12;73.36
81518;BME280;70947;50.806;8.774;2023-07-02T03:09:07;98836.67;;;16.15;73.38
81518;BME280;70947;50.806;8.774;2023-07-02T03:11:39;98834.36;;;16.18;73.12
81518;BME280;70947;50.806;8.774;2023-07-02T03:14:11;98838.46;;;16.20;73.14
81518;BME280;70947;50.806;8.774;2023-07-02T03:16:43;98843.20;;;16.21;73.67
81518;BME280;70947;50.806;8.774;2023-07-02T03:19:15;98843.50;;;16.19;73.51
81518;BME280;70947;50.806;8.774;2023-07-02T03:21:47;98843.48;;;16.19;73.43
81518;BME280;70947;50.806;8.774;2023-07-02T03:24:18;98843.83;;;16.19;73.34
81518;BME280;70947;50.806;8.774;2023-07-02T03:26:50;98841.03;;;16.16;73.44
81518;BME280;70947;50.806;8.774;2023-07-02T03:29:22;98839.94;;;16.16;73.28
81518;BME280;70947;50.806;8.774;2023-07-02T03:31:54;98836.77;;;16.16;72.97
81518;BME280;70947;50.806;8.774;2023-07-02T03:34:25;98831.67;;;16.15;72.72
81518;BME280;70947;50.806;8.774;2023-07-02T03:36:57;98830.24;;;16.15;72.83
81518;BME280;70947;50.806;8.774;2023-07-02T03:39:29;98830.05;;;16.15;73.10
81518;BME280;70947;50.806;8.774;2023-07-02T03:42:01;98830.35;;;16.13;72.85
81518;BME280;70947;50.806;8.774;2023-07-02T03:44:33;98831.48;;;16.12;72.87
81518;BME280;70947;50.806;8.774;2023-07-02T03:47:05;98835.05;;;16.11;72.92
81518;BME280;70947;50.806;8.774;2023-07-02T03:49:38;98834.39;;;16.10;73.02
81518;BME280;70947;50.806;8.774;2023-07-02T03:52:10;98836.42;;;16.09;72.81
81518;BME280;70947;50.806;8.774;2023-07-02T03:54:43;98844.22;;;16.07;72.64
81518;BME280;70947;50.806;8.774;2023-07-02T03:57:15;98849.59;;;16.03;72.65
81518;BME280;70947;50.806;8.774;2023-07-02T03:59:47;98845.33;;;16.03;72.83
81518;BME280;70947;50.806;8.774;2023-07-02T04:02:19;98847.49;;;16.03;72.51
81518;BME280;70947;50.806;8.774;2023-07-02T04:04:51;98843.48;;;16.01;72.71
81518;BME280;70947;50.806;8.774;2023-07-02T04:07:23;98852.28;;;16.00;72.75
81518;BME280;70947;50.806;8.774;2023-07-02T04:09:55;98848.49;;;15.98;72.82
81518;BME280;70947;50.806;8.774;2023-07-02T04:12:27;98846.63;;;15.96;72.82
81518;BME280;70947;50.806;8.774;2023-07-02T04:14:58;98848.65;;;15.95;72.79
81518;BME280;70947;50.806;8.774;2023-07-02T04:17:30;98853.91;;;15.93;72.83
81518;BME280;70947;50.806;8.774;2023-07-02T04:20:03;98858.98;;;15.89;73.31
81518;BME280;70947;50.806;8.774;2023-07-02T04:22:34;98867.60;;;15.90;72.73
81518;BME280;70947;50.806;8.774;2023-07-02T04:25:07;98868.85;;;15.90;72.80
81518;BME280;70947;50.806;8.774;2023-07-02T04:27:59;98872.52;;;15.91;72.78
81518;BME280;70947;50.806;8.774;2023-07-02T04:30:31;98878.55;;;15.91;72.86
81518;BME280;70947;50.806;8.774;2023-07-02T04:33:18;98888.23;;;15.89;72.88
81518;BME280;70947;50.806;8.774;2023-07-02T04:35:50;98895.70;;;15.86;73.07
81518;BME280;70947;50.806;8.774;2023-07-02T04:38:22;98904.63;;;15.85;73.15
81518;BME280;70947;50.806;8.774;2023-07-02T04:40:54;98906.59;;;15.85;73.29
81518;BME280;70947;50.806;8.774;2023-07-02T04:43:57;98907.27;;;15.85;73.18
81518;BME280;70947;50.806;8.774;2023-07-02T04:46:38;98899.90;;;15.84;73.78
81518;BME280;70947;50.806;8.774;2023-07-02T04:49:29;98894.73;;;15.81;73.61
81518;BME280;70947;50.806;8.774;2023-07-02T04:52:02;98891.15;;;15.81;73.84
81518;BME280;70947;50.806;8.774;2023-07-02T04:54:34;98895.72;;;15.85;73.56
81518;BME280;70947;50.806;8.774;2023-07-02T04:57:06;98897.90;;;15.88;73.54
81518;BME280;70947;50.806;8.774;2023-07-02T04:59:39;98905.59;;;15.87;73.50
81518;BME280;70947;50.806;8.774;2023-07-02T05:02:10;98904.53;;;15.86;73.48
81518;BME280;70947;50.806;8.774;2023-07-02T05:04:42;98909.49;;;15.90;73.48
81518;BME280;70947;50.806;8.774;2023-07-02T05:07:13;98914.67;;;15.92;73.52
81518;BME280;70947;50.806;8.774;2023-07-02T05:09:45;98917.30;;;15.93;73.69
81518;BME280;70947;50.806;8.774;2023-07-02T05:12:19;98918.69;;;15.96;73.86
81518;BME280;70947;50.806;8.774;2023-07-02T05:14:50;98915.66;;;16.00;73.73
81518;BME280;70947;50.806;8.774;2023-07-02T05:17:22;98921.15;;;16.03;73.65
81518;BME280;70947;50.806;8.774;2023-07-02T05:19:54;98921.66;;;16.06;73.68
81518;BME280;70947;50.806;8.774;2023-07-02T05:22:26;98921.52;;;16.09;73.78
81518;BME280;70947;50.806;8.774;2023-07-02T05:24:57;98926.98;;;16.09;73.50
81518;BME280;70947;50.806;8.774;2023-07-02T05:27:29;98925.19;;;16.10;73.66
81518;BME280;70947;50.806;8.774;2023-07-02T05:30:01;98929.26;;;16.10;73.64
81518;BME280;70947;50.806;8.774;2023-07-02T05:32:35;98931.16;;;16.11;73.49
81518;BME280;70947;50.806;8.774;2023-07-02T05:35:08;98932.90;;;16.15;73.45
81518;BME280;70947;50.806;8.774;2023-07-02T05:37:40;98930.08;;;16.18;73.62
81518;BME280;70947;50.806;8.774;2023-07-02T05:40:12;98931.77;;;16.22;73.27
81518;BME280;70947;50.806;8.774;2023-07-02T05:42:47;98930.79;;;16.24;72.38
81518;BME280;70947;50.806;8.774;2023-07-02T05:45:18;98934.02;;;16.26;72.46
81518;BME280;70947;50.806;8.774;2023-07-02T05:47:50;98938.45;;;16.29;72.13
81518;BME280;70947;50.806;8.774;2023-07-02T05:50:23;98938.42;;;16.30;71.51
81518;BME280;70947;50.806;8.774;2023-07-02T05:52:54;98933.44;;;16.30;71.42
81518;BME280;70947;50.806;8.774;2023-07-02T05:55:26;98934.80;;;16.31;71.13
81518;BME280;70947;50.806;8.774;2023-07-02T05:57:58;98941.65;;;16.32;71.15
81518;BME280;70947;50.806;8.774;2023-07-02T06:00:33;98935.58;;;16.32;71.05
81518;BME280;70947;50.806;8.774;2023-07-02T06:03:04;98941.79;;;16.36;70.97
81518;BME280;70947;50.806;8.774;2023-07-02T06:05:37;98945.61;;;16.40;70.47
81518;BME280;70947;50.806;8.774;2023-07-02T06:08:09;98950.00;;;16.44;70.29
81518;BME280;70947;50.806;8.774;2023-07-02T06:10:43;98950.80;;;16.48;70.35
81518;BME280;70947;50.806;8.774;2023-07-02T06:13:15;98948.77;;;16.53;70.53
81518;BME280;70947;50.806;8.774;2023-07-02T06:15:47;98952.91;;;16.58;70.50
81518;BME280;70947;50.806;8.774;2023-07-02T06:18:19;98957.05;;;16.63;70.01
81518;BME280;70947;50.806;8.774;2023-07-02T06:20:52;98962.00;;;16.63;69.52
81518;BME280;70947;50.806;8.774;2023-07-02T06:23:24;98961.60;;;16.61;69.68
81518;BME280;70947;50.806;8.774;2023-07-02T06:25:56;98962.04;;;16.60;69.53
81518;BME280;70947;50.806;8.774;2023-07-02T06:28:29;98966.48;;;16.59;69.27
81518;BME280;70947;50.806;8.774;2023-07-02T06:31:01;98964.61;;;16.58;68.79
81518;BME280;70947;50.806;8.774;2023-07-02T06:33:33;98965.07;;;16.57;69.11
81518;BME280;70947;50.806;8.774;2023-07-02T06:36:04;98965.61;;;16.56;69.00
81518;BME280;70947;50.806;8.774;2023-07-02T06:38:36;98972.35;;;16.57;69.01
81518;BME280;70947;50.806;8.774;2023-07-02T06:41:08;98977.45;;;16.57;68.92
81518;BME280;70947;50.806;8.774;2023-07-02T06:43:41;98979.20;;;16.58;68.58
81518;BME280;70947;50.806;8.774;2023-07-02T06:46:13;98981.88;;;16.61;68.81
81518;BME280;70947;50.806;8.774;2023-07-02T06:48:45;98979.84;;;16.62;69.09
81518;BME280;70947;50.806;8.774;2023-07-02T06:51:17;98976.20;;;16.64;68.39
81518;BME280;70947;50.806;8.774;2023-07-02T06:53:49;98976.16;;;16.68;68.46
81518;BME280;70947;50.806;8.774;2023-07-02T06:56:21;98978.52;;;16.73;68.17
81518;BME280;70947;50.806;8.774;2023-07-02T06:58:52;98983.21;;;16.78;67.98
81518;BME280;70947;50.806;8.774;2023-07-02T07:01:24;98983.54;;;16.81;67.71
81518;BME280;70947;50.806;8.774;2023-07-02T07:03:56;98987.69;;;16.83;67.68
81518;BME280;70947;50.806;8.774;2023-07-02T07:09:13;98993.67;;;16.90;67.50
81518;BME280;70947;50.806;8.774;2023-07-02T07:11:47;98995.40;;;16.91;67.46
81518;BME280;70947;50.806;8.774;2023-07-02T07:14:18;98994.77;;;16.90;67.34
81518;BME280;70947;50.806;8.774;2023-07-02T07:16:50;98998.98;;;16.91;67.29
81518;BME280;70947;50.806;8.774;2023-07-02T07:19:22;99000.61;;;16.90;67.20
81518;BME280;70947;50.806;8.774;2023-07-02T07:21:54;98996.11;;;16.91;67.25
81518;BME280;70947;50.806;8.774;2023-07-02T07:24:26;99000.27;;;16.93;66.84
81518;BME280;70947;50.806;8.774;2023-07-02T07:26:58;98998.81;;;16.93;66.71
81518;BME280;70947;50.806;8.774;2023-07-02T07:29:30;99000.11;;;16.95;67.04
81518;BME280;70947;50.806;8.774;2023-07-02T07:32:01;98999.58;;;16.98;67.05
81518;BME280;70947;50.806;8.774;2023-07-02T07:34:33;99005.20;;;17.02;66.61
81518;BME280;70947;50.806;8.774;2023-07-02T07:37:06;99005.83;;;17.04;66.25
81518;BME280;70947;50.806;8.774;2023-07-02T07:39:38;99007.95;;;17.06;66.30
81518;BME280;70947;50.806;8.774;2023-07-02T07:42:10;99015.19;;;17.10;66.22
81518;BME280;70947;50.806;8.774;2023-07-02T07:44:41;99014.46;;;17.14;66.06
81518;BME280;70947;50.806;8.774;2023-07-02T07:47:13;99016.34;;;17.18;65.88
81518;BME280;70947;50.806;8.774;2023-07-02T07:49:45;99018.63;;;17.21;65.68
81518;BME280;70947;50.806;8.774;2023-07-02T07:52:16;99015.86;;;17.23;65.85
81518;BME280;70947;50.806;8.774;2023-07-02T07:54:48;99013.63;;;17.24;65.66
81518;BME280;70947;50.806;8.774;2023-07-02T07:57:20;99012.89;;;17.25;65.25
81518;BME280;70947;50.806;8.774;2023-07-02T07:59:51;99014.58;;;17.24;65.43
81518;BME280;70947;50.806;8.774;2023-07-02T08:02:23;99013.73;;;17.26;65.69
81518;BME280;70947;50.806;8.774;2023-07-02T08:04:55;99012.67;;;17.29;65.69
81518;BME280;70947;50.806;8.774;2023-07-02T08:07:27;99015.22;;;17.33;65.56
81518;BME280;70947;50.806;8.774;2023-07-02T08:09:59;99015.58;;;17.39;65.22
81518;BME280;70947;50.806;8.774;2023-07-02T08:12:33;99022.16;;;17.45;65.07
81518;BME280;70947;50.806;8.774;2023-07-02T08:15:06;99025.15;;;17.48;64.72
81518;BME280;70947;50.806;8.774;2023-07-02T08:17:38;99025.98;;;17.49;64.67
81518;BME280;70947;50.806;8.774;2023-07-02T08:20:11;99023.89;;;17.51;64.18
81518;BME280;70947;50.806;8.774;2023-07-02T08:22:43;99026.95;;;17.53;64.28
81518;BME280;70947;50.806;8.774;2023-07-02T08:25:39;99024.73;;;17.57;64.21
81518;BME280;70947;50.806;8.774;2023-07-02T08:28:14;99026.41;;;17.62;64.28
81518;BME280;70947;50.806;8.774;2023-07-02T08:30:46;99029.59;;;17.68;63.66
81518;BME280;70947;50.806;8.774;2023-07-02T08:33:18;99034.44;;;17.73;63.51
81518;BME280;70947;50.806;8.774;2023-07-02T08:35:50;99033.08;;;17.78;63.09
81518;BME280;70947;50.806;8.774;2023-07-02T08:38:22;99036.40;;;17.79;62.83
81518;BME280;70947;50.806;8.774;2023-07-02T08:40:54;99035.98;;;17.80;62.63
81518;BME280;70947;50.806;8.774;2023-07-02T08:43:27;99041.42;;;17.81;62.14
81518;BME280;70947;50.806;8.774;2023-07-02T08:46:00;99047.20;;;17.80;62.26
81518;BME280;70947;50.806;8.774;2023-07-02T08:48:32;99042.17;;;17.81;62.20
81518;BME280;70947;50.806;8.774;2023-07-02T08:51:05;99045.52;;;17.84;62.42
81518;BME280;70947;50.806;8.774;2023-07-02T08:53:38;99048.82;;;17.88;62.01
81518;BME280;70947;50.806;8.774;2023-07-02T08:56:10;99052.05;;;17.93;61.08
81518;BME280;70947;50.806;8.774;2023-07-02T08:58:42;99050.56;;;18.00;60.77
81518;BME280;70947;50.806;8.774;2023-07-02T09:01:15;99047.60;;;18.07;60.03
81518;BME280;70947;50.806;8.774;2023-07-02T09:03:48;99045.25;;;18.13;59.79
81518;BME280;70947;50.806;8.774;2023-07-02T09:06:21;99047.66;;;18.20;59.82
81518;BME280;70947;50.806;8.774;2023-07-02T09:09:02;99058.59;;;18.27;58.99
81518;BME280;70947;50.806;8.774;2023-07-02T09:11:35;99055.31;;;18.31;58.41
81518;BME280;70947;50.806;8.774;2023-07-02T09:14:26;99049.78;;;18.34;58.32
81518;BME280;70947;50.806;8.774;2023-07-02T09:17:06;99048.99;;;18.40;58.46
81518;BME280;70947;50.806;8.774;2023-07-02T09:19:51;99049.02;;;18.45;58.11
81518;BME280;70947;50.806;8.774;2023-07-02T09:22:23;99050.16;;;18.52;58.27
81518;BME280;70947;50.806;8.774;2023-07-02T09:24:56;99048.23;;;18.57;58.76
81518;BME280;70947;50.806;8.774;2023-07-02T09:27:38;99048.39;;;18.63;58.44
81518;BME280;70947;50.806;8.774;2023-07-02T09:30:13;99050.64;;;18.70;58.28
81518;BME280;70947;50.806;8.774;2023-07-02T09:32:47;99052.11;;;18.72;56.39
81518;BME280;70947;50.806;8.774;2023-07-02T09:35:19;99053.05;;;18.74;56.46
81518;BME280;70947;50.806;8.774;2023-07-02T09:37:51;99057.63;;;18.75;55.12
81518;BME280;70947;50.806;8.774;2023-07-02T09:40:24;99059.44;;;18.74;54.20
81518;BME280;70947;50.806;8.774;2023-07-02T09:42:59;99054.30;;;18.76;54.73
81518;BME280;70947;50.806;8.774;2023-07-02T09:45:31;99051.44;;;18.81;55.03
81518;BME280;70947;50.806;8.774;2023-07-02T09:48:04;99049.59;;;18.88;54.88
81518;BME280;70947;50.806;8.774;2023-07-02T09:50:37;99049.95;;;18.98;54.24
81518;BME280;70947;50.806;8.774;2023-07-02T09:53:09;99047.27;;;19.14;52.53
81518;BME280;70947;50.806;8.774;2023-07-02T09:55:43;99044.77;;;19.29;52.32
81518;BME280;70947;50.806;8.774;2023-07-02T09:58:16;99039.27;;;19.44;51.44
81518;BME280;70947;50.806;8.774;2023-07-02T10:00:49;99044.83;;;19.59;51.52
81518;BME280;70947;50.806;8.774;2023-07-02T10:03:31;99047.02;;;19.74;51.09
81518;BME280;70947;50.806;8.774;2023-07-02T10:06:06;99045.77;;;19.89;51.06
81518;BME280;70947;50.806;8.774;2023-07-02T10:08:38;99041.23;;;20.02;51.12
81518;BME280;70947;50.806;8.774;2023-07-02T10:11:12;99041.60;;;20.11;49.96
81518;BME280;70947;50.806;8.774;2023-07-02T10:13:44;99038.38;;;20.22;50.72
81518;BME280;70947;50.806;8.774;2023-07-02T10:16:17;99034.31;;;20.28;50.37
81518;BME280;70947;50.806;8.774;2023-07-02T10:18:50;99047.75;;;20.39;49.82
81518;BME280;70947;50.806;8.774;2023-07-02T10:21:22;99044.93;;;20.41;49.53
81518;BME280;70947;50.806;8.774;2023-07-02T10:23:54;99042.94;;;20.42;49.31
81518;BME280;70947;50.806;8.774;2023-07-02T10:26:25;99044.17;;;20.47;49.43
81518;BME280;70947;50.806;8.774;2023-07-02T10:29:00;99050.45;;;20.54;49.96
81518;BME280;70947;50.806;8.774;2023-07-02T10:31:32;99046.05;;;20.48;49.59
81518;BME280;70947;50.806;8.774;2023-07-02T10:34:04;99040.54;;;20.45;50.33
81518;BME280;70947;50.806;8.774;2023-07-02T10:36:36;99035.86;;;20.43;49.84
81518;BME280;70947;50.806;8.774;2023-07-02T10:39:08;99033.30;;;20.39;49.99
81518;BME280;70947;50.806;8.774;2023-07-02T10:41:40;99038.33;;;20.36;50.60
81518;BME280;70947;50.806;8.774;2023-07-02T10:44:12;99031.89;;;20.41;49.95
81518;BME280;70947;50.806;8.774;2023-07-02T10:46:47;99033.91;;;20.43;49.29
81518;BME280;70947;50.806;8.774;2023-07-02T10:49:19;99035.24;;;20.44;49.92
81518;BME280;70947;50.806;8.774;2023-07-02T10:51:59;99034.98;;;20.51;48.32
81518;BME280;70947;50.806;8.774;2023-07-02T10:54:42;99030.25;;;20.54;47.90
81518;BME280;70947;50.806;8.774;2023-07-02T10:57:15;99038.83;;;20.56;47.74
81518;BME280;70947;50.806;8.774;2023-07-02T10:59:50;99039.30;;;20.55;47.66
81518;BME280;70947;50.806;8.774;2023-07-02T11:02:22;99038.59;;;20.52;47.22
81518;BME280;70947;50.806;8.774;2023-07-02T11:04:57;99039.42;;;20.51;47.10
81518;BME280;70947;50.806;8.774;2023-07-02T11:07:29;99041.48;;;20.50;46.86
81518;BME280;70947;50.806;8.774;2023-07-02T11:10:00;99046.23;;;20.48;46.89
81518;BME280;70947;50.806;8.774;2023-07-02T11:12:33;99047.75;;;20.44;46.97
81518;BME280;70947;50.806;8.774;2023-07-02T11:15:11;99049.03;;;20.47;47.48
81518;BME280;70947;50.806;8.774;2023-07-02T11:17:44;99049.08;;;20.46;47.46
81518;BME280;70947;50.806;8.774;2023-07-02T11:20:16;99046.59;;;20.43;47.15
81518;BME280;70947;50.806;8.774;2023-07-02T11:22:49;99046.45;;;20.40;46.70
81518;BME280;70947;50.806;8.774;2023-07-02T11:25:24;99054.59;;;20.37;47.37
81518;BME280;70947;50.806;8.774;2023-07-02T11:28:05;99054.16;;;20.37;47.50
81518;BME280;70947;50.806;8.774;2023-07-02T11:30:46;99049.78;;;20.44;47.15
81518;BME280;70947;50.806;8.774;2023-07-02T11:33:18;99050.29;;;20.56;46.85
81518;BME280;70947;50.806;8.774;2023-07-02T11:35:49;99045.36;;;20.65;47.28
81518;BME280;70947;50.806;8.774;2023-07-02T11:38:21;99045.62;;;20.66;47.55
81518;BME280;70947;50.806;8.774;2023-07-02T11:40:53;99045.09;;;20.66;46.60
81518;BME280;70947;50.806;8.774;2023-07-02T11:43:25;99055.41;;;20.65;46.88
81518;BME280;70947;50.806;8.774;2023-07-02T11:45:59;99053.16;;;20.66;46.17
81518;BME280;70947;50.806;8.774;2023-07-02T11:48:30;99053.42;;;20.67;45.88
81518;BME280;70947;50.806;8.774;2023-07-02T11:51:03;99049.03;;;20.69;45.84
81518;BME280;70947;50.806;8.774;2023-07-02T11:53:34;99045.09;;;20.73;45.45
81518;BME280;70947;50.806;8.774;2023-07-02T11:56:08;99039.85;;;20.78;45.05
81518;BME280;70947;50.806;8.774;2023-07-02T11:58:40;99044.73;;;20.87;44.80
81518;BME280;70947;50.806;8.774;2023-07-02T12:01:12;99042.23;;;20.96;45.18
81518;BME280;70947;50.806;8.774;2023-07-02T12:03:45;99038.33;;;21.10;44.75
81518;BME280;70947;50.806;8.774;2023-07-02T12:06:17;99035.59;;;21.24;44.80
81518;BME280;70947;50.806;8.774;2023-07-02T12:08:49;99037.92;;;21.34;44.97
81518;BME280;70947;50.806;8.774;2023-07-02T12:11:20;99041.69;;;21.43;45.95
81518;BME280;70947;50.806;8.774;2023-07-02T12:13:52;99047.93;;;21.46;44.65
81518;BME280;70947;50.806;8.774;2023-07-02T12:16:24;99050.55;;;21.40;44.77
81518;BME280;70947;50.806;8.774;2023-07-02T12:18:56;99060.64;;;21.29;45.57
81518;BME280;70947;50.806;8.774;2023-07-02T12:21:28;99068.16;;;21.20;45.29
81518;BME280;70947;50.806;8.774;2023-07-02T12:24:00;99066.77;;;21.12;45.44
81518;BME280;70947;50.806;8.774;2023-07-02T12:26:32;99066.83;;;21.09;45.46
81518;BME280;70947;50.806;8.774;2023-07-02T12:29:03;99065.39;;;21.07;45.43
81518;BME280;70947;50.806;8.774;2023-07-02T12:31:35;99066.52;;;21.04;45.41
81518;BME280;70947;50.806;8.774;2023-07-02T12:34:07;99066.71;;;21.06;43.69
81518;BME280;70947;50.806;8.774;2023-07-02T12:36:39;99066.83;;;21.07;43.53
81518;BME280;70947;50.806;8.774;2023-07-02T12:39:11;99061.94;;;21.05;43.88
81518;BME280;70947;50.806;8.774;2023-07-02T12:41:44;99067.19;;;21.05;43.38
81518;BME280;70947;50.806;8.774;2023-07-02T12:44:15;99066.18;;;21.11;42.93
81518;BME280;70947;50.806;8.774;2023-07-02T12:46:47;99064.89;;;21.16;43.96
81518;BME280;70947;50.806;8.774;2023-07-02T12:49:19;99060.83;;;21.18;42.83
81518;BME280;70947;50.806;8.774;2023-07-02T12:51:50;99059.39;;;21.18;43.23
81518;BME280;70947;50.806;8.774;2023-07-02T12:54:22;99059.36;;;21.16;44.08
81518;BME280;70947;50.806;8.774;2023-07-02T12:56:53;99059.17;;;21.18;44.31
81518;BME280;70947;50.806;8.774;2023-07-02T12:59:25;99058.67;;;21.25;44.47
81518;BME280;70947;50.806;8.774;2023-07-02T13:01:57;99063.02;;;21.36;43.59
81518;BME280;70947;50.806;8.774;2023-07-02T13:04:29;99065.95;;;21.49;43.01
81518;BME280;70947;50.806;8.774;2023-07-02T13:07:02;99061.52;;;21.55;42.26
81518;BME280;70947;50.806;8.774;2023-07-02T13:09:34;99057.67;;;21.58;42.77
81518;BME280;70947;50.806;8.774;2023-07-02T13:12:07;99062.54;;;21.62;42.92
81518;BME280;70947;50.806;8.774;2023-07-02T13:14:39;99065.26;;;21.67;42.80
81518;BME280;70947;50.806;8.774;2023-07-02T13:17:11;99063.66;;;21.73;42.39
81518;BME280;70947;50.806;8.774;2023-07-02T13:19:43;99063.01;;;21.79;42.48
81518;BME280;70947;50.806;8.774;2023-07-02T13:22:14;99064.02;;;21.84;42.81
81518;BME280;70947;50.806;8.774;2023-07-02T13:24:46;99061.85;;;21.91;43.14
81518;BME280;70947;50.806;8.774;2023-07-02T13:27:18;99059.20;;;21.91;42.65
81518;BME280;70947;50.806;8.774;2023-07-02T13:29:50;99066.27;;;21.92;42.77
81518;BME280;70947;50.806;8.774;2023-07-02T13:32:22;99070.98;;;21.94;42.90